createdAt,value
2022-12-08T00:03:03.360Z,35.25
2022-12-08T00:06:33.872Z,24.37
2022-12-08T00:09:43.387Z,24.85
2022-12-08T00:12:46.836Z,23.65
2022-12-08T00:15:49.534Z,24.02
2022-12-08T00:18:52.375Z,23.55
2022-12-08T00:21:56.491Z,22.62
2022-12-08T00:24:59.900Z,23.08
2022-12-08T00:28:02.335Z,26.13
2022-12-08T00:31:10.244Z,23.00
2022-12-08T00:34:16.292Z,21.12
2022-12-08T00:37:25.905Z,22.05
2022-12-08T00:40:35.461Z,23.30
2022-12-08T00:43:39.340Z,24.23
2022-12-08T00:46:42.257Z,24.52
2022-12-08T00:49:45.318Z,29.17
2022-12-08T00:52:50.510Z,27.42
2022-12-08T00:55:53.238Z,34.88
2022-12-08T00:58:55.731Z,38.25
2022-12-08T01:02:02.920Z,35.50
2022-12-08T01:05:07.278Z,30.67
2022-12-08T01:08:11.356Z,37.55
2022-12-08T01:11:17.861Z,37.22
2022-12-08T01:14:24.508Z,38.78
2022-12-08T01:17:26.864Z,38.45
2022-12-08T01:20:29.577Z,38.95
2022-12-08T01:23:32.083Z,40.08
2022-12-08T01:26:38.310Z,41.83
2022-12-08T01:29:41.328Z,37.40
2022-12-08T01:32:45.896Z,41.95
2022-12-08T01:35:48.494Z,36.60
2022-12-08T01:38:52.426Z,42.97
2022-12-08T01:41:54.789Z,42.03
2022-12-08T01:48:09.315Z,44.78
2022-12-08T01:51:16.230Z,46.40
2022-12-08T01:54:24.781Z,42.60
2022-12-08T01:57:47.218Z,46.20
2022-12-08T02:00:52.198Z,44.65
2022-12-08T02:04:01.158Z,46.63
2022-12-08T02:07:08.110Z,50.05
2022-12-08T02:10:16.325Z,52.25
2022-12-08T02:13:21.484Z,48.35
2022-12-08T02:17:12.787Z,50.67
2022-12-08T02:20:24.149Z,46.97
2022-12-08T02:24:05.792Z,47.70
2022-12-08T02:27:30.314Z,51.55
2022-12-08T02:30:45.118Z,51.13
2022-12-08T02:34:07.284Z,47.72
2022-12-08T02:37:28.230Z,44.65
2022-12-08T02:40:44.181Z,51.78
2022-12-08T02:44:15.880Z,55.88
2022-12-08T02:47:20.335Z,43.95
2022-12-08T02:50:26.126Z,53.47
2022-12-08T02:53:31.916Z,45.55
2022-12-08T02:57:00.496Z,50.00
2022-12-08T03:00:08.669Z,49.05
2022-12-08T03:04:00.710Z,44.97
2022-12-08T03:07:10.351Z,40.12
2022-12-08T03:10:21.133Z,44.10
2022-12-08T03:13:29.365Z,45.92
2022-12-08T03:16:36.664Z,40.47
2022-12-08T03:19:42.562Z,42.20
2022-12-08T03:22:47.178Z,42.58
2022-12-08T03:25:59.864Z,44.42
2022-12-08T03:29:02.982Z,45.20
2022-12-08T03:32:17.367Z,45.63
2022-12-08T03:35:24.409Z,40.28
2022-12-08T03:38:29.587Z,41.13
2022-12-08T03:41:33.299Z,44.80
2022-12-08T03:44:35.979Z,48.28
2022-12-08T03:47:41.359Z,46.00
2022-12-08T03:50:44.607Z,39.60
2022-12-08T03:53:47.770Z,41.33
2022-12-08T03:56:52.634Z,43.03
2022-12-08T03:59:59.716Z,41.30
2022-12-08T04:03:02.279Z,44.92
2022-12-08T04:06:06.307Z,40.90
2022-12-08T04:09:09.318Z,47.60
2022-12-08T04:12:12.011Z,44.30
2022-12-08T04:15:14.358Z,42.92
2022-12-08T04:18:17.031Z,39.88
2022-12-08T04:21:20.394Z,41.97
2022-12-08T04:24:23.158Z,41.72
2022-12-08T04:27:25.521Z,65.57
2022-12-08T04:30:29.397Z,42.70
2022-12-08T04:33:32.176Z,43.92
2022-12-08T04:36:34.892Z,42.17
2022-12-08T04:39:37.374Z,66.18
2022-12-08T04:42:40.015Z,46.42
2022-12-08T04:45:48.544Z,41.63
2022-12-08T04:49:10.666Z,39.63
2022-12-08T04:55:56.757Z,42.05
2022-12-08T04:58:59.196Z,44.35
2022-12-08T05:02:02.476Z,39.30
2022-12-08T05:05:05.640Z,38.37
2022-12-08T05:08:09.877Z,42.92
2022-12-08T05:11:13.890Z,39.10
2022-12-08T05:14:18.725Z,39.45
2022-12-08T05:17:21.302Z,41.60
2022-12-08T05:20:24.049Z,38.45
2022-12-08T05:26:32.035Z,42.08
2022-12-08T05:29:35.765Z,39.50
2022-12-08T05:35:40.576Z,43.30
2022-12-08T05:38:48.443Z,40.95
2022-12-08T05:41:50.867Z,39.05
2022-12-08T05:44:53.564Z,38.30
2022-12-08T05:47:55.907Z,41.58
2022-12-08T05:50:58.527Z,40.60
2022-12-08T05:54:00.970Z,39.80
2022-12-08T05:57:03.773Z,43.05
2022-12-08T06:00:07.558Z,37.40
2022-12-08T06:03:16.095Z,39.75
2022-12-08T06:06:20.005Z,38.78
2022-12-08T06:09:22.464Z,39.42
2022-12-08T06:12:25.260Z,38.50
2022-12-08T06:15:27.972Z,37.63
2022-12-08T06:18:32.829Z,38.65
2022-12-08T06:21:35.980Z,38.70
2022-12-08T06:24:38.766Z,37.20
2022-12-08T06:27:41.091Z,37.22
2022-12-08T06:30:45.362Z,37.80
2022-12-08T06:33:48.603Z,38.97
2022-12-08T06:36:52.665Z,38.13
2022-12-08T06:42:59.078Z,34.80
2022-12-08T06:46:02.365Z,40.70
2022-12-08T06:49:05.139Z,32.85
2022-12-08T06:52:08.552Z,38.90
2022-12-08T06:55:29.187Z,35.47
2022-12-08T06:58:36.258Z,37.13
2022-12-08T07:01:41.895Z,34.22
2022-12-08T07:04:44.594Z,37.25
2022-12-08T07:07:47.343Z,37.05
2022-12-08T07:10:51.592Z,40.85
2022-12-08T07:14:00.418Z,36.13
2022-12-08T07:17:03.513Z,36.40
2022-12-08T07:20:07.366Z,42.55
2022-12-08T07:23:09.902Z,38.17
2022-12-08T07:26:13.688Z,36.10
2022-12-08T07:29:16.933Z,38.90
2022-12-08T07:32:21.097Z,42.72
2022-12-08T07:35:23.301Z,37.05
2022-12-08T07:38:26.679Z,38.42
2022-12-08T07:41:29.106Z,37.73
2022-12-08T07:44:32.014Z,35.63
2022-12-08T07:47:34.332Z,36.67
2022-12-08T07:50:37.178Z,33.28
2022-12-08T07:53:48.543Z,34.63
2022-12-08T07:56:57.972Z,37.25
2022-12-08T08:00:00.403Z,36.20
2022-12-08T08:03:03.126Z,40.78
2022-12-08T08:06:05.997Z,37.78
2022-12-08T08:09:10.056Z,38.83
2022-12-08T08:12:30.839Z,39.97
2022-12-08T08:15:34.001Z,33.08
2022-12-08T08:18:37.871Z,37.90
2022-12-08T08:21:46.290Z,39.88
2022-12-08T08:24:49.125Z,38.38
2022-12-08T08:27:51.599Z,47.90
2022-12-08T08:30:54.511Z,37.35
2022-12-08T08:33:57.416Z,40.75
2022-12-08T08:37:00.028Z,41.47
2022-12-08T08:40:03.075Z,38.85
2022-12-08T08:43:07.054Z,41.78
2022-12-08T08:46:10.205Z,44.20
2022-12-08T08:49:13.193Z,45.33
2022-12-08T08:52:15.751Z,41.60
2022-12-08T08:55:19.993Z,41.90
2022-12-08T08:58:22.231Z,42.20
2022-12-08T09:01:27.861Z,36.53
2022-12-08T09:04:30.494Z,46.22
2022-12-08T09:07:36.126Z,38.72
2022-12-08T09:10:38.592Z,41.92
2022-12-08T09:13:41.181Z,41.13
2022-12-08T09:16:44.334Z,43.05
2022-12-08T09:19:47.131Z,38.37
2022-12-08T09:22:49.415Z,41.40
2022-12-08T09:25:52.026Z,46.20
2022-12-08T09:28:55.798Z,38.03
2022-12-08T09:35:01.627Z,40.88
2022-12-08T09:38:05.001Z,39.42
2022-12-08T09:41:37.483Z,37.20
2022-12-08T09:45:04.800Z,40.60
2022-12-08T09:48:14.953Z,40.17
2022-12-08T09:51:17.699Z,36.85
2022-12-08T09:54:25.653Z,35.72
2022-12-08T09:57:30.363Z,35.40
2022-12-08T10:00:40.123Z,38.92
2022-12-08T10:03:43.197Z,38.78
2022-12-08T10:07:04.798Z,41.00
2022-12-08T10:10:22.796Z,40.45
2022-12-08T10:13:37.689Z,48.95
2022-12-08T10:16:48.538Z,37.63
2022-12-08T10:20:07.552Z,38.45
2022-12-08T10:23:27.774Z,36.90
2022-12-08T10:26:33.018Z,39.15
2022-12-08T10:29:35.544Z,37.75
2022-12-08T10:32:38.227Z,34.45
2022-12-08T10:35:47.591Z,37.90
2022-12-08T10:38:49.922Z,34.75
2022-12-08T10:41:52.523Z,40.55
2022-12-08T10:45:10.567Z,48.60
2022-12-08T10:48:29.090Z,46.65
2022-12-08T10:51:34.192Z,36.83
2022-12-08T10:54:42.012Z,34.35
2022-12-08T10:57:44.366Z,34.45
2022-12-08T11:00:47.165Z,32.55
2022-12-08T11:03:59.709Z,28.50
2022-12-08T11:07:04.904Z,26.35
2022-12-08T11:10:18.785Z,33.33
2022-12-08T11:13:29.883Z,31.65
2022-12-08T11:16:32.308Z,24.65
2022-12-08T11:19:44.348Z,20.00
2022-12-08T11:22:53.276Z,17.12
2022-12-08T11:26:01.325Z,17.45
2022-12-08T11:29:04.448Z,17.75
2022-12-08T11:32:12.928Z,19.90
2022-12-08T11:35:30.232Z,17.73
2022-12-08T11:38:34.040Z,22.35
2022-12-08T11:41:41.180Z,20.35
2022-12-08T11:44:53.137Z,21.48
2022-12-08T11:48:17.426Z,20.15
2022-12-08T11:54:45.414Z,19.75
2022-12-08T11:57:50.879Z,20.67
2022-12-08T12:00:53.141Z,18.00
2022-12-08T12:04:13.985Z,22.37
2022-12-08T12:07:42.569Z,20.73
2022-12-08T12:11:02.956Z,20.88
2022-12-08T12:14:17.938Z,19.77
2022-12-08T12:17:47.976Z,19.50
2022-12-08T12:21:11.521Z,18.48
2022-12-08T12:24:35.588Z,21.12
2022-12-08T12:27:41.531Z,22.73
2022-12-08T12:31:06.997Z,21.50
2022-12-08T12:34:22.166Z,17.48
2022-12-08T12:37:35.342Z,18.52
2022-12-08T12:40:42.021Z,16.90
2022-12-08T12:44:10.516Z,16.58
2022-12-08T12:47:14.964Z,18.35
2022-12-08T12:50:37.258Z,18.77
2022-12-08T12:53:39.517Z,19.15
2022-12-08T12:56:54.695Z,18.20
2022-12-08T13:00:00.092Z,17.45
2022-12-08T13:03:03.013Z,18.40
2022-12-08T13:06:09.951Z,19.45
2022-12-08T13:09:27.336Z,19.92
2022-12-08T13:12:29.845Z,19.52
2022-12-08T13:15:52.594Z,23.08
2022-12-08T13:19:02.415Z,20.12
2022-12-08T13:22:43.360Z,20.88
2022-12-08T13:25:48.290Z,20.23
2022-12-08T13:29:01.226Z,17.92
2022-12-08T13:32:24.966Z,22.73
2022-12-08T13:35:27.913Z,17.45
2022-12-08T13:38:32.417Z,22.60
2022-12-08T13:41:43.566Z,17.55
2022-12-08T13:45:39.612Z,19.25
2022-12-08T13:53:49.356Z,20.15
2022-12-08T13:59:18.605Z,26.12
2022-12-08T14:02:36.267Z,29.87
2022-12-08T14:06:11.014Z,29.42
2022-12-08T14:09:12.676Z,21.45
2022-12-08T14:12:27.810Z,21.55
2022-12-08T14:15:37.897Z,26.12
2022-12-08T14:18:40.999Z,35.42
2022-12-08T14:21:47.906Z,24.75
2022-12-08T14:24:53.275Z,21.58
2022-12-08T14:28:05.310Z,20.40
2022-12-08T14:31:08.643Z,23.45
2022-12-08T14:34:18.859Z,20.62
2022-12-08T14:37:22.509Z,18.92
2022-12-08T14:40:36.116Z,21.90
2022-12-08T14:43:40.890Z,18.77
2022-12-08T14:47:11.593Z,21.30
2022-12-08T14:50:38.665Z,18.70
2022-12-08T14:53:58.920Z,23.60
2022-12-08T14:57:02.858Z,21.15
2022-12-08T15:00:11.575Z,22.45
2022-12-08T15:03:17.287Z,19.75
2022-12-08T15:06:22.428Z,25.50
2022-12-08T15:09:43.144Z,28.30
2022-12-08T15:13:07.425Z,21.48
2022-12-08T15:19:33.424Z,21.85
2022-12-08T15:22:36.072Z,22.80
2022-12-08T15:25:38.332Z,23.08
2022-12-08T15:28:40.831Z,23.80
2022-12-08T15:31:43.209Z,22.00
2022-12-08T15:34:45.852Z,25.33
2022-12-08T15:37:53.237Z,26.80
2022-12-08T15:41:02.105Z,27.20
2022-12-08T15:44:12.197Z,27.02
2022-12-08T15:47:21.346Z,24.08
2022-12-08T15:50:54.086Z,28.73
2022-12-08T16:09:12.919Z,27.95
2022-12-08T16:13:55.445Z,32.03
2022-12-08T16:16:34.311Z,28.10
2022-12-08T16:19:47.630Z,32.67
2022-12-08T16:23:03.593Z,26.65
2022-12-08T16:27:22.030Z,25.25
2022-12-08T16:29:48.399Z,24.77
2022-12-08T16:36:02.811Z,26.65
2022-12-08T16:39:15.750Z,24.20
2022-12-08T16:42:40.919Z,22.50
2022-12-08T16:45:45.235Z,25.05
2022-12-08T16:48:48.296Z,22.73
2022-12-08T16:51:53.502Z,25.35
2022-12-08T16:54:57.842Z,23.65
2022-12-08T16:58:04.776Z,22.30
2022-12-08T17:01:19.368Z,24.87
2022-12-08T17:04:34.724Z,23.65
2022-12-08T17:07:37.693Z,23.60
2022-12-08T17:10:45.470Z,25.05
2022-12-08T17:13:59.172Z,25.05
2022-12-08T17:17:11.980Z,22.20
2022-12-08T17:20:36.633Z,22.70
2022-12-08T17:23:41.537Z,23.15
2022-12-08T17:26:50.330Z,21.40
2022-12-08T17:29:59.180Z,22.45
2022-12-08T17:33:12.312Z,23.48
2022-12-08T17:36:21.970Z,22.80
2022-12-08T17:39:27.010Z,23.65
2022-12-08T17:42:31.609Z,23.27
2022-12-08T17:45:34.323Z,22.33
2022-12-08T17:48:37.405Z,21.85
2022-12-08T17:51:40.004Z,27.33
2022-12-08T17:54:43.291Z,22.75
2022-12-08T17:57:47.200Z,22.13
2022-12-08T18:03:54.264Z,19.70
2022-12-08T18:06:59.468Z,20.62
2022-12-08T18:10:02.369Z,22.85
2022-12-08T18:13:05.695Z,20.80
2022-12-08T18:16:21.441Z,25.33
2022-12-08T18:19:24.006Z,24.33
2022-12-08T18:22:32.124Z,27.17
2022-12-08T18:25:34.543Z,30.23
2022-12-08T18:28:41.195Z,26.17
2022-12-08T18:32:07.622Z,24.60
2022-12-08T18:35:21.869Z,27.55
2022-12-08T18:38:24.322Z,25.62
2022-12-08T18:41:27.360Z,19.10
2022-12-08T18:44:31.243Z,47.92
2022-12-08T18:47:36.613Z,26.77
2022-12-08T18:50:43.161Z,23.67
2022-12-08T18:53:46.894Z,25.65
2022-12-08T19:00:10.957Z,19.85
2022-12-08T19:03:13.381Z,22.25
2022-12-08T19:06:16.346Z,24.25
2022-12-08T19:12:53.869Z,23.80
2022-12-08T19:15:58.072Z,20.62
2022-12-08T19:19:02.200Z,19.70
2022-12-08T19:22:07.713Z,21.75
2022-12-08T19:25:12.676Z,22.13
2022-12-08T19:28:15.325Z,21.25
2022-12-08T19:31:20.983Z,22.50
2022-12-08T19:34:23.827Z,21.45
2022-12-08T19:37:28.543Z,19.70
2022-12-08T19:40:49.755Z,21.30
2022-12-08T19:44:10.803Z,22.10
2022-12-08T19:47:14.721Z,20.73
2022-12-08T19:50:35.996Z,21.75
2022-12-08T19:53:41.865Z,22.23
2022-12-08T19:56:48.304Z,22.50
2022-12-08T19:59:56.418Z,25.65
2022-12-08T20:03:00.672Z,22.23
2022-12-08T20:06:05.095Z,22.83
2022-12-08T20:09:08.684Z,21.90
2022-12-08T20:12:14.849Z,20.77
2022-12-08T20:15:17.921Z,19.77
2022-12-08T20:18:23.272Z,26.23
2022-12-08T20:21:26.014Z,24.20
2022-12-08T20:24:38.980Z,26.58
2022-12-08T20:27:43.598Z,22.25
2022-12-08T20:30:55.820Z,29.55
2022-12-08T20:34:02.704Z,38.63
2022-12-08T20:37:07.837Z,24.67
2022-12-08T20:40:16.009Z,25.98
2022-12-08T20:43:19.429Z,24.20
2022-12-08T20:46:38.569Z,29.40
2022-12-08T20:49:45.557Z,24.65
2022-12-08T20:55:59.479Z,24.20
2022-12-08T20:59:07.332Z,24.05
2022-12-08T21:02:16.841Z,27.15
2022-12-08T21:05:19.690Z,25.73
2022-12-08T21:08:28.493Z,25.27
2022-12-08T21:12:03.751Z,23.00
2022-12-08T21:15:08.146Z,25.52
2022-12-08T21:21:17.853Z,27.55
2022-12-08T21:24:20.785Z,27.20
2022-12-08T21:27:23.698Z,24.25
2022-12-08T21:30:26.040Z,30.45
2022-12-08T21:33:29.010Z,24.55
2022-12-08T21:36:32.002Z,29.85
2022-12-08T21:39:34.756Z,27.63
2022-12-08T21:42:46.405Z,27.20
2022-12-08T21:45:49.630Z,29.63
2022-12-08T21:48:53.337Z,26.45
2022-12-08T21:51:56.625Z,27.48
2022-12-08T21:55:01.398Z,31.73
2022-12-08T21:58:04.320Z,28.23
2022-12-08T22:01:11.844Z,32.65
2022-12-08T22:04:18.980Z,30.15
2022-12-08T22:07:21.716Z,31.50
2022-12-08T22:10:24.701Z,31.48
2022-12-08T22:13:28.680Z,29.08
2022-12-08T22:16:33.163Z,36.63
2022-12-08T22:19:35.862Z,33.55
2022-12-08T22:22:40.053Z,33.15
2022-12-08T22:28:45.267Z,33.33
2022-12-08T22:31:47.896Z,29.02
2022-12-08T22:34:50.596Z,32.75
2022-12-08T22:37:53.075Z,27.13
2022-12-08T22:40:55.932Z,35.22
2022-12-08T22:43:58.212Z,30.23
2022-12-08T22:47:01.001Z,31.42
2022-12-08T22:50:04.844Z,28.85
2022-12-08T22:53:07.779Z,29.95
2022-12-08T22:56:13.356Z,34.50
2022-12-08T22:59:16.138Z,33.20
2022-12-08T23:02:18.688Z,31.67
2022-12-08T23:05:21.585Z,29.83
2022-12-08T23:08:24.587Z,32.03
2022-12-08T23:11:30.951Z,29.67
2022-12-08T23:14:33.340Z,30.08
2022-12-08T23:17:36.205Z,30.60
2022-12-08T23:20:38.766Z,31.20
2022-12-08T23:23:42.037Z,30.23
2022-12-08T23:26:44.415Z,31.80
2022-12-08T23:29:47.177Z,35.45
2022-12-08T23:32:49.686Z,31.55
2022-12-08T23:35:58.835Z,35.03
2022-12-08T23:39:01.351Z,34.67
2022-12-08T23:42:04.328Z,30.33
2022-12-08T23:45:08.909Z,30.73
2022-12-08T23:48:11.720Z,32.72
2022-12-08T23:51:14.553Z,32.35
2022-12-08T23:54:17.863Z,38.13
2022-12-08T23:57:21.197Z,30.75
